Newton, KS (67114)

12:51 AM CST on February 13, 2016 (GMT -0600)
Downtown Newton | | Change Station
CLOSE
Current Station
Personal Weather Station
Location: Newton, KS
Elevation: 1445 ft
Nearby Weather Stations

Elev 1445 ft 38.04 °N, 97.34 °W | Updated 13 seconds ago

Mostly Cloudy
Mostly Cloudy
28.0 °F
Feels Like 20 °F
N
8.1
Wind Variable Wind from ENE
Gusts 8.1 mph

Today
High -- | Low -- °F
--% Chance of Precip.
Yesterday
High -- | Low -- °F
Precip. -- in
Pressure 30.52 in
Visibility 10.0 miles
Clouds Mostly Cloudy 11000 ft
Windchill 20 °F
Dew Point 16 °F
Humidity 61%
Rainfall 0.00 in
Snow Depth Not available.
7:22 AM 6:05 PM
Waxing Crescent, 27% visible
METAR KEWK 130635Z AUTO 06007KT 10SM BKN110 M03/M11 A3052 RMK AO1
Pressure 30.52 in
Visibility 10.0 miles
Clouds Mostly Cloudy 11000 ft
Windchill 20 °F
Dew Point 16 °F
Humidity 61%
Rainfall 0.00 in
Snow Depth Not available.
7:22 AM 6:05 PM
Waxing Crescent, 27% visible
METAR KEWK 130635Z AUTO 06007KT 10SM BKN110 M03/M11 A3052 RMK AO1

10-Day Weather Forecast

Almanac

Astronomy

Feb. 13, 2016 Rise Set
Actual Time
Civil Twilight
Nautical Twilight
Astronomical Twilight
Moon
Length of Visible Light
Length of Day
Tomorrow will be .
, % of the Moon is Illuminated

Today's Extremes

State Highs State Lows

Community

WunderPhotos

Upload Photos

1,892,519 photos uploaded!

WunderBlog® & News

Nearby

Air Quality

  Air Quality AQ Index Pollutant
Not available.

Snow Depth

Station Depth Elevation

Earthquake Activity

City Distance Mag. Time & Date
Minimum magnitude displayed is 2.5.

Coastal Water Temperatures

Place Temperature

Stations

Nearby Weather Stations

Station Location Temp. Windchill Dew Point Humidity Wind Precip. Elev Updated Type
                   

Watches & Warnings

There are currently no watches in effect.